createdAt,value
2022-10-26T00:00:53.590Z,8.62
2022-10-26T00:03:23.001Z,8.63
2022-10-26T00:05:51.017Z,8.57
2022-10-26T00:08:19.014Z,8.62
2022-10-26T00:10:46.971Z,8.50
2022-10-26T00:13:14.914Z,8.43
2022-10-26T00:15:43.169Z,8.37
2022-10-26T00:18:11.302Z,8.31
2022-10-26T00:20:40.609Z,8.29
2022-10-26T00:23:08.624Z,8.32
2022-10-26T00:25:36.624Z,8.38
2022-10-26T00:28:04.730Z,8.42
2022-10-26T00:30:32.739Z,8.42
2022-10-26T00:33:00.710Z,8.46
2022-10-26T00:35:45.049Z,8.43
2022-10-26T00:38:15.533Z,8.36
2022-10-26T00:40:44.345Z,8.32
2022-10-26T00:43:17.413Z,8.16
2022-10-26T00:45:46.561Z,8.05
2022-10-26T00:48:24.377Z,8.14
2022-10-26T00:50:55.224Z,8.26
2022-10-26T00:53:24.590Z,8.31
2022-10-26T00:55:54.444Z,8.29
2022-10-26T00:58:23.920Z,8.32
2022-10-26T01:00:52.513Z,8.41
2022-10-26T01:03:21.376Z,8.43
2022-10-26T01:05:50.939Z,8.43
2022-10-26T01:08:19.538Z,8.49
2022-10-26T01:10:49.846Z,8.59
2022-10-26T01:13:18.909Z,8.56
2022-10-26T01:15:55.179Z,8.54
2022-10-26T01:18:33.456Z,8.52
2022-10-26T01:21:42.580Z,8.40
2022-10-26T01:24:45.833Z,8.34
2022-10-26T01:27:23.079Z,8.29
2022-10-26T01:30:27.986Z,8.18
2022-10-26T01:33:14.930Z,8.12
2022-10-26T01:35:51.973Z,7.94
2022-10-26T01:38:27.052Z,7.83
2022-10-26T01:41:05.077Z,7.73
2022-10-26T01:43:36.370Z,7.70
2022-10-26T01:46:08.374Z,7.67
2022-10-26T01:48:38.536Z,7.61
2022-10-26T01:51:08.471Z,7.62
2022-10-26T01:53:36.555Z,7.59
2022-10-26T01:56:04.705Z,7.46
2022-10-26T01:59:23.236Z,7.37
2022-10-26T02:02:28.800Z,7.24
2022-10-26T02:05:12.032Z,7.17
2022-10-26T02:07:51.730Z,7.20
2022-10-26T02:10:31.757Z,7.28
2022-10-26T02:13:03.474Z,7.36
2022-10-26T02:15:38.244Z,7.30
2022-10-26T02:18:19.925Z,7.21
2022-10-26T02:20:52.584Z,7.15
2022-10-26T02:23:23.092Z,7.01
2022-10-26T02:25:56.627Z,6.99
2022-10-26T02:28:29.901Z,7.00
2022-10-26T02:31:01.089Z,7.16
2022-10-26T02:33:35.386Z,7.28
2022-10-26T02:36:08.208Z,7.30
2022-10-26T02:38:38.809Z,7.37
2022-10-26T02:41:09.685Z,7.40
2022-10-26T02:43:42.757Z,7.57
2022-10-26T02:46:16.648Z,7.59
2022-10-26T02:48:46.129Z,7.62
2022-10-26T02:51:20.178Z,7.70
2022-10-26T02:53:53.805Z,7.76
2022-10-26T02:56:27.508Z,7.77
2022-10-26T02:59:00.704Z,7.78
2022-10-26T03:01:29.577Z,7.79
2022-10-26T03:04:00.742Z,7.71
2022-10-26T03:06:28.768Z,7.64
2022-10-26T03:08:56.734Z,7.62
2022-10-26T03:11:24.709Z,7.70
2022-10-26T03:13:52.693Z,7.66
2022-10-26T03:16:20.685Z,7.61
2022-10-26T03:18:48.648Z,7.54
2022-10-26T03:21:17.952Z,7.49
2022-10-26T03:23:47.821Z,7.48
2022-10-26T03:26:15.737Z,7.42
2022-10-26T03:28:43.815Z,7.32
2022-10-26T03:31:11.741Z,7.32
2022-10-26T03:33:39.806Z,7.38
2022-10-26T03:36:08.685Z,7.43
2022-10-26T03:38:38.050Z,7.42
2022-10-26T03:41:06.256Z,7.45
2022-10-26T03:43:34.204Z,7.47
2022-10-26T03:46:02.170Z,7.47
2022-10-26T03:48:30.136Z,7.61
2022-10-26T03:50:59.343Z,7.60
2022-10-26T03:53:27.363Z,7.67
2022-10-26T03:55:56.659Z,7.54
2022-10-26T04:00:53.666Z,7.38
2022-10-26T04:03:21.609Z,7.32
2022-10-26T04:05:49.536Z,7.32
2022-10-26T04:08:17.478Z,7.31
2022-10-26T04:10:47.046Z,7.24
2022-10-26T04:13:16.377Z,7.21
2022-10-26T04:15:44.534Z,7.11
2022-10-26T04:18:12.974Z,6.94
2022-10-26T04:20:42.773Z,6.94
2022-10-26T04:23:13.522Z,6.88
2022-10-26T04:25:42.693Z,6.93
2022-10-26T04:28:11.851Z,6.90
2022-10-26T04:30:41.577Z,6.86
2022-10-26T04:33:09.604Z,6.77
2022-10-26T04:35:37.531Z,6.72
2022-10-26T04:38:07.281Z,6.59
2022-10-26T04:40:36.068Z,6.64
2022-10-26T04:43:04.131Z,6.61
2022-10-26T04:45:32.206Z,6.67
2022-10-26T04:48:02.678Z,6.60
2022-10-26T04:50:30.674Z,6.57
2022-10-26T04:52:59.241Z,6.63
2022-10-26T04:55:27.183Z,6.64
2022-10-26T04:57:57.230Z,6.73
2022-10-26T05:00:30.148Z,6.77
2022-10-26T05:03:02.108Z,6.73
2022-10-26T05:05:31.834Z,6.76
2022-10-26T05:08:00.068Z,6.76
2022-10-26T05:10:28.434Z,6.80
2022-10-26T05:12:59.226Z,6.66
2022-10-26T05:15:28.221Z,6.65
2022-10-26T05:17:57.279Z,6.67
2022-10-26T05:20:29.945Z,6.65
2022-10-26T05:22:58.819Z,6.45
2022-10-26T05:25:27.453Z,6.40
2022-10-26T05:28:00.155Z,6.39
2022-10-26T05:30:28.625Z,6.40
2022-10-26T05:32:56.622Z,6.41
2022-10-26T05:35:26.496Z,6.39
2022-10-26T05:37:55.109Z,6.39
2022-10-26T05:40:23.352Z,6.42
2022-10-26T05:42:51.994Z,6.37
2022-10-26T05:45:20.182Z,6.40
2022-10-26T05:47:48.662Z,6.40
2022-10-26T05:50:16.933Z,6.44
2022-10-26T05:52:48.070Z,6.46
2022-10-26T05:55:18.488Z,6.40
2022-10-26T05:57:47.490Z,6.28
2022-10-26T06:00:20.239Z,6.23
2022-10-26T06:03:09.126Z,6.25
2022-10-26T06:05:43.269Z,6.20
2022-10-26T06:08:13.264Z,6.19
2022-10-26T06:10:42.024Z,6.15
2022-10-26T06:13:10.553Z,6.15
2022-10-26T06:15:50.583Z,6.14
2022-10-26T06:18:26.803Z,6.14
2022-10-26T06:21:11.254Z,6.15
2022-10-26T06:23:48.754Z,6.18
2022-10-26T06:26:28.332Z,6.10
2022-10-26T06:29:07.793Z,6.16
2022-10-26T06:31:35.942Z,6.18
2022-10-26T06:34:04.816Z,6.16
2022-10-26T06:36:34.199Z,6.16
2022-10-26T06:39:06.672Z,6.16
2022-10-26T06:41:36.718Z,6.13
2022-10-26T06:44:06.232Z,6.14
2022-10-26T06:46:40.405Z,6.17
2022-10-26T06:49:18.262Z,6.13
2022-10-26T06:51:52.886Z,6.18
2022-10-26T06:54:29.217Z,6.23
2022-10-26T06:56:57.613Z,6.34
2022-10-26T06:59:36.478Z,6.39
2022-10-26T07:02:06.533Z,6.38
2022-10-26T07:04:34.888Z,6.46
2022-10-26T07:07:02.915Z,6.54
2022-10-26T07:09:32.189Z,6.62
2022-10-26T07:12:00.283Z,6.68
2022-10-26T07:14:28.246Z,6.76
2022-10-26T07:16:57.089Z,6.82
2022-10-26T07:19:25.441Z,6.89
2022-10-26T07:21:56.646Z,6.96
2022-10-26T07:24:24.720Z,7.05
2022-10-26T07:26:54.950Z,7.17
2022-10-26T07:29:23.062Z,7.19
2022-10-26T07:31:51.869Z,7.26
2022-10-26T07:34:19.931Z,7.47
2022-10-26T07:36:47.955Z,7.48
2022-10-26T07:39:15.920Z,7.58
2022-10-26T07:41:43.961Z,7.73
2022-10-26T07:44:13.349Z,7.83
2022-10-26T07:46:41.331Z,7.85
2022-10-26T07:49:09.309Z,7.91
2022-10-26T07:51:37.818Z,7.99
2022-10-26T07:54:05.816Z,8.11
2022-10-26T07:56:33.831Z,8.14
2022-10-26T07:59:01.857Z,8.21
2022-10-26T08:01:31.295Z,8.26
2022-10-26T08:03:59.343Z,8.34
2022-10-26T08:06:27.320Z,8.43
2022-10-26T08:08:55.311Z,8.54
2022-10-26T08:11:23.336Z,8.59
2022-10-26T08:13:53.247Z,8.75
2022-10-26T08:16:21.738Z,8.76
2022-10-26T08:18:51.609Z,8.79
2022-10-26T08:21:25.976Z,8.84
2022-10-26T08:24:03.757Z,8.92
2022-10-26T08:26:31.700Z,8.96
2022-10-26T08:28:59.683Z,9.04
2022-10-26T08:31:27.652Z,9.08
2022-10-26T08:33:56.963Z,9.13
2022-10-26T08:36:26.767Z,9.07
2022-10-26T08:38:54.971Z,9.25
2022-10-26T08:41:32.489Z,9.37
2022-10-26T08:44:05.483Z,9.47
2022-10-26T08:46:39.067Z,9.53
2022-10-26T08:49:20.290Z,9.55
2022-10-26T08:51:50.973Z,9.64
2022-10-26T08:54:29.843Z,9.71
2022-10-26T08:57:01.899Z,9.68
2022-10-26T08:59:35.730Z,9.87
2022-10-26T09:02:04.094Z,9.93
2022-10-26T09:04:34.134Z,10.01
2022-10-26T09:07:09.628Z,10.04
2022-10-26T09:09:48.507Z,10.15
2022-10-26T09:12:24.381Z,10.21
2022-10-26T09:15:06.035Z,10.26
2022-10-26T09:17:46.061Z,10.41
2022-10-26T09:20:29.240Z,10.48
2022-10-26T09:23:02.196Z,10.49
2022-10-26T09:25:39.582Z,10.58
2022-10-26T09:28:15.180Z,10.67
2022-10-26T09:30:45.627Z,10.76
2022-10-26T09:33:17.827Z,10.70
2022-10-26T09:35:51.043Z,10.86
2022-10-26T09:38:24.889Z,10.92
2022-10-26T09:40:59.237Z,11.08
2022-10-26T09:43:33.069Z,11.18
2022-10-26T09:46:01.085Z,11.23
2022-10-26T09:48:36.043Z,11.28
2022-10-26T09:51:05.488Z,11.37
2022-10-26T09:53:33.807Z,11.41
2022-10-26T09:56:06.632Z,11.52
2022-10-26T09:58:38.568Z,11.61
2022-10-26T10:01:06.612Z,11.72
2022-10-26T10:03:34.638Z,11.76
2022-10-26T10:06:18.517Z,11.80
2022-10-26T10:09:07.029Z,11.87
2022-10-26T10:11:41.973Z,11.85
2022-10-26T10:14:16.446Z,11.91
2022-10-26T10:16:53.063Z,11.98
2022-10-26T10:19:26.858Z,12.12
2022-10-26T10:21:59.497Z,12.18
2022-10-26T10:24:30.471Z,12.27
2022-10-26T10:27:01.360Z,12.27
2022-10-26T10:29:31.335Z,12.29
2022-10-26T10:32:00.788Z,12.35
2022-10-26T10:34:31.882Z,12.41
2022-10-26T10:37:02.531Z,12.55
2022-10-26T10:39:40.612Z,12.59
2022-10-26T10:42:18.494Z,12.73
2022-10-26T10:44:47.896Z,12.80
2022-10-26T10:47:23.285Z,12.89
2022-10-26T10:49:58.216Z,12.87
2022-10-26T10:52:30.671Z,12.97
2022-10-26T10:55:15.323Z,13.07
2022-10-26T10:57:57.433Z,13.14
2022-10-26T11:00:26.529Z,13.27
2022-10-26T11:03:16.867Z,13.30
2022-10-26T11:06:04.994Z,13.35
2022-10-26T11:08:39.423Z,13.35
2022-10-26T11:11:11.822Z,13.38
2022-10-26T11:13:45.358Z,13.45
2022-10-26T11:18:56.646Z,13.54
2022-10-26T11:21:28.891Z,13.56
2022-10-26T11:24:13.741Z,13.54
2022-10-26T11:26:47.443Z,13.53
2022-10-26T11:29:25.057Z,13.59
2022-10-26T11:31:58.357Z,13.65
2022-10-26T11:34:32.567Z,13.71
2022-10-26T11:37:06.893Z,13.77
2022-10-26T11:39:44.001Z,13.84
2022-10-26T11:42:23.314Z,13.95
2022-10-26T11:44:58.230Z,14.07
2022-10-26T11:47:34.904Z,14.14
2022-10-26T11:50:07.845Z,14.16
2022-10-26T11:52:40.750Z,14.21
2022-10-26T11:55:12.419Z,14.25
2022-10-26T11:57:42.094Z,14.27
2022-10-26T12:00:17.351Z,14.42
2022-10-26T12:02:50.032Z,14.55
2022-10-26T12:05:23.069Z,14.67
2022-10-26T12:07:54.606Z,14.79
2022-10-26T12:10:27.838Z,14.85
2022-10-26T12:13:12.229Z,14.92
2022-10-26T12:16:03.418Z,14.96
2022-10-26T12:18:56.360Z,14.92
2022-10-26T12:21:28.886Z,14.85
2022-10-26T12:23:59.310Z,14.85
2022-10-26T12:26:56.153Z,14.85
2022-10-26T12:29:46.113Z,14.92
2022-10-26T12:32:50.826Z,14.92
2022-10-26T12:35:34.633Z,15.04
2022-10-26T12:38:23.051Z,15.13
2022-10-26T12:41:10.624Z,15.25
2022-10-26T12:43:41.812Z,15.37
2022-10-26T12:46:45.176Z,15.50
2022-10-26T12:49:45.951Z,15.62
2022-10-26T12:52:41.326Z,15.67
2022-10-26T12:55:54.735Z,15.80
2022-10-26T12:58:47.709Z,15.83
2022-10-26T13:05:09.882Z,15.91
2022-10-26T13:07:40.102Z,15.92
2022-10-26T13:10:21.099Z,15.96
2022-10-26T13:12:52.688Z,16.02
2022-10-26T13:15:25.800Z,16.14
2022-10-26T13:18:02.195Z,16.18
2022-10-26T13:20:32.238Z,16.09
2022-10-26T13:25:33.572Z,16.20
2022-10-26T13:28:05.299Z,16.20
2022-10-26T13:30:45.626Z,16.18
2022-10-26T13:33:22.484Z,16.14
2022-10-26T13:35:54.667Z,16.10
2022-10-26T13:38:26.287Z,16.07
2022-10-26T13:41:08.180Z,16.12
2022-10-26T13:43:38.480Z,16.03
2022-10-26T13:46:08.066Z,16.08
2022-10-26T13:48:40.054Z,15.96
2022-10-26T13:51:19.329Z,16.10
2022-10-26T13:53:52.529Z,16.23
2022-10-26T13:56:29.476Z,16.29
2022-10-26T13:59:01.114Z,16.42
2022-10-26T14:01:31.632Z,16.49
2022-10-26T14:03:59.891Z,16.49
2022-10-26T14:06:33.543Z,16.52
2022-10-26T14:09:05.365Z,16.48
2022-10-26T14:11:36.896Z,16.47
2022-10-26T14:14:05.558Z,16.44
2022-10-26T14:16:35.656Z,16.29
2022-10-26T14:19:04.619Z,16.20
2022-10-26T14:21:32.625Z,16.18
2022-10-26T14:24:07.439Z,16.12
2022-10-26T14:26:42.456Z,16.05
2022-10-26T14:29:17.336Z,15.96
2022-10-26T14:31:46.928Z,15.84
2022-10-26T14:34:14.925Z,15.79
2022-10-26T14:36:47.437Z,15.84
2022-10-26T14:39:25.817Z,15.83
2022-10-26T14:41:55.549Z,15.83
2022-10-26T14:44:25.674Z,15.78
2022-10-26T14:46:55.427Z,15.65
2022-10-26T14:49:25.900Z,15.56
2022-10-26T14:51:58.907Z,15.53
2022-10-26T14:54:28.685Z,15.38
2022-10-26T14:57:02.731Z,15.26
2022-10-26T14:59:32.473Z,15.15
2022-10-26T15:02:14.169Z,15.10
2022-10-26T15:04:57.373Z,15.06
2022-10-26T15:07:25.629Z,14.93
2022-10-26T15:09:53.921Z,14.88
2022-10-26T15:12:28.441Z,14.86
2022-10-26T15:15:06.172Z,14.76
2022-10-26T15:17:39.297Z,14.68
2022-10-26T15:20:15.418Z,14.59
2022-10-26T15:22:44.738Z,14.52
2022-10-26T15:25:20.747Z,14.42
2022-10-26T15:27:49.429Z,14.38
2022-10-26T15:30:26.151Z,14.30
2022-10-26T15:32:56.982Z,14.21
2022-10-26T15:35:32.631Z,14.16
2022-10-26T15:38:01.816Z,14.12
2022-10-26T15:40:32.285Z,14.10
2022-10-26T15:43:01.917Z,14.07
2022-10-26T15:45:33.016Z,13.98
2022-10-26T15:48:20.169Z,13.83
2022-10-26T15:50:48.168Z,13.59
2022-10-26T15:53:21.257Z,13.38
2022-10-26T15:55:49.667Z,13.23
2022-10-26T15:58:18.092Z,13.07
2022-10-26T16:00:46.217Z,12.97
2022-10-26T16:03:18.782Z,12.98
2022-10-26T16:05:47.050Z,12.99
2022-10-26T16:08:18.451Z,12.88
2022-10-26T16:10:48.541Z,12.77
2022-10-26T16:13:16.864Z,12.70
2022-10-26T16:15:45.488Z,12.73
2022-10-26T16:18:15.156Z,12.73
2022-10-26T16:20:46.727Z,12.69
2022-10-26T16:23:15.126Z,12.75
2022-10-26T16:25:45.582Z,12.81
2022-10-26T16:28:17.487Z,12.95
2022-10-26T16:30:45.562Z,13.11
2022-10-26T16:33:14.971Z,13.21
2022-10-26T16:35:43.018Z,13.26
2022-10-26T16:38:10.990Z,13.30
2022-10-26T16:40:42.448Z,13.34
2022-10-26T16:43:10.556Z,13.35
2022-10-26T16:45:40.766Z,13.36
2022-10-26T16:48:14.370Z,13.33
2022-10-26T16:50:43.807Z,13.32
2022-10-26T16:53:11.755Z,13.27
2022-10-26T16:55:39.833Z,13.23
2022-10-26T16:58:07.939Z,13.14
2022-10-26T17:00:36.465Z,13.09
2022-10-26T17:03:04.546Z,13.05
2022-10-26T17:05:32.522Z,12.98
2022-10-26T17:08:01.835Z,12.85
2022-10-26T17:10:29.789Z,12.75
2022-10-26T17:12:57.938Z,12.66
2022-10-26T17:15:29.085Z,12.64
2022-10-26T17:17:57.396Z,12.60
2022-10-26T17:20:25.399Z,12.64
2022-10-26T17:22:53.515Z,12.67
2022-10-26T17:25:22.811Z,12.63
2022-10-26T17:27:50.855Z,12.66
2022-10-26T17:30:19.083Z,12.64
2022-10-26T17:32:47.040Z,12.63
2022-10-26T17:35:16.917Z,12.57
2022-10-26T17:37:45.026Z,12.54
2022-10-26T17:40:13.425Z,12.49
2022-10-26T17:42:42.906Z,12.44
2022-10-26T17:45:11.500Z,12.42
2022-10-26T17:47:39.469Z,12.37
2022-10-26T17:50:08.454Z,12.32
2022-10-26T17:52:36.737Z,12.33
2022-10-26T17:55:05.230Z,12.31
2022-10-26T17:57:33.476Z,12.32
2022-10-26T18:00:03.825Z,12.31
2022-10-26T18:02:32.056Z,12.25
2022-10-26T18:05:03.755Z,12.21
2022-10-26T18:07:34.600Z,12.18
2022-10-26T18:10:19.471Z,12.23
2022-10-26T18:12:50.710Z,12.25
2022-10-26T18:15:20.190Z,12.31
2022-10-26T18:17:51.389Z,12.29
2022-10-26T18:20:20.587Z,12.35
2022-10-26T18:22:48.897Z,12.37
2022-10-26T18:25:17.143Z,12.43
2022-10-26T18:27:45.144Z,12.47
2022-10-26T18:30:13.935Z,12.53
2022-10-26T18:32:43.499Z,12.57
2022-10-26T18:35:11.944Z,12.61
2022-10-26T18:37:39.913Z,12.64
2022-10-26T18:40:09.149Z,12.68
2022-10-26T18:42:37.120Z,12.73
2022-10-26T18:45:05.895Z,12.78
2022-10-26T18:47:34.361Z,12.80
2022-10-26T18:50:03.741Z,12.82
2022-10-26T18:52:31.849Z,12.80
2022-10-26T18:54:59.785Z,12.77
2022-10-26T18:57:28.850Z,12.73
2022-10-26T18:59:56.840Z,12.76
2022-10-26T19:02:24.764Z,12.78
2022-10-26T19:04:53.684Z,12.76
2022-10-26T19:07:23.015Z,12.75
2022-10-26T19:09:50.988Z,12.71
2022-10-26T19:12:18.954Z,12.68
2022-10-26T19:14:47.189Z,12.64
2022-10-26T19:17:15.197Z,12.58
2022-10-26T19:19:43.182Z,12.57
2022-10-26T19:22:11.634Z,12.58
2022-10-26T19:24:40.967Z,12.56
2022-10-26T19:27:08.965Z,12.56
2022-10-26T19:29:37.187Z,12.57
2022-10-26T19:32:05.557Z,12.56
2022-10-26T19:34:33.615Z,12.56
2022-10-26T19:37:01.574Z,12.61
2022-10-26T19:39:29.549Z,12.66
2022-10-26T19:41:58.887Z,12.69
2022-10-26T19:44:26.932Z,12.74
2022-10-26T19:46:54.960Z,12.75
2022-10-26T19:49:23.190Z,12.70
2022-10-26T19:51:51.139Z,12.72
2022-10-26T19:54:19.138Z,12.73
2022-10-26T19:56:47.178Z,12.73
2022-10-26T19:59:16.590Z,12.71
2022-10-26T20:01:44.813Z,12.69
2022-10-26T20:04:13.256Z,12.68
2022-10-26T20:06:41.236Z,12.74
2022-10-26T20:09:09.230Z,12.73
2022-10-26T20:11:39.654Z,12.69
2022-10-26T20:14:08.253Z,12.69
2022-10-26T20:16:37.565Z,12.67
2022-10-26T20:19:05.724Z,12.66
2022-10-26T20:21:33.721Z,12.60
2022-10-26T20:24:02.476Z,12.63
2022-10-26T20:26:32.589Z,12.64
2022-10-26T20:29:00.577Z,12.57
2022-10-26T20:31:28.544Z,12.52
2022-10-26T20:33:57.870Z,12.51
2022-10-26T20:36:26.477Z,12.49
2022-10-26T20:38:54.993Z,12.46
2022-10-26T20:41:23.379Z,12.43
2022-10-26T20:43:54.427Z,12.39
2022-10-26T20:46:27.175Z,12.34
2022-10-26T20:48:57.188Z,12.24
2022-10-26T20:51:47.591Z,12.18
2022-10-26T20:54:25.286Z,12.17
2022-10-26T20:56:56.019Z,12.15
2022-10-26T21:02:05.471Z,12.01
2022-10-26T21:04:34.866Z,11.97
2022-10-26T21:07:02.874Z,12.04
2022-10-26T21:09:34.150Z,12.04
2022-10-26T21:12:04.978Z,12.04
2022-10-26T21:14:35.850Z,12.03
2022-10-26T21:17:03.815Z,12.06
2022-10-26T21:19:31.778Z,12.03
2022-10-26T21:22:01.161Z,12.03
2022-10-26T21:24:29.222Z,11.96
2022-10-26T21:26:57.214Z,11.92
2022-10-26T21:29:25.232Z,11.84
2022-10-26T21:31:53.273Z,11.73
2022-10-26T21:34:21.229Z,11.68
2022-10-26T21:36:49.195Z,11.60
2022-10-26T21:39:18.586Z,11.62
2022-10-26T21:41:46.554Z,11.62
2022-10-26T21:44:42.264Z,11.57
2022-10-26T21:47:02.535Z,11.46
2022-10-26T21:49:30.749Z,11.44
2022-10-26T21:51:58.759Z,11.40
2022-10-26T21:54:28.395Z,11.25
2022-10-26T21:56:56.380Z,11.24
2022-10-26T21:59:24.567Z,11.20
2022-10-26T22:01:52.676Z,11.15
2022-10-26T22:04:20.730Z,11.09
2022-10-26T22:06:48.729Z,11.07
2022-10-26T22:09:17.341Z,11.01
2022-10-26T22:11:46.688Z,10.98
2022-10-26T22:14:16.452Z,10.99
2022-10-26T22:16:44.464Z,10.88
2022-10-26T22:19:12.463Z,10.82
2022-10-26T22:21:42.426Z,10.75
2022-10-26T22:24:11.203Z,10.65
2022-10-26T22:26:39.659Z,10.61
2022-10-26T22:29:10.093Z,10.55
2022-10-26T22:31:40.371Z,10.46
2022-10-26T22:34:13.626Z,10.41
2022-10-26T22:36:41.712Z,10.40
2022-10-26T22:39:09.748Z,10.37
2022-10-26T22:41:37.701Z,10.33
2022-10-26T22:44:06.059Z,10.30
2022-10-26T22:46:35.369Z,10.44
2022-10-26T22:49:03.648Z,10.49
2022-10-26T22:51:34.156Z,10.46
2022-10-26T22:54:03.475Z,10.47
2022-10-26T22:56:33.055Z,10.42
2022-10-26T22:59:01.273Z,10.62
2022-10-26T23:01:32.114Z,10.55
2022-10-26T23:04:01.665Z,10.52
2022-10-26T23:06:31.650Z,10.46
2022-10-26T23:09:00.023Z,10.53
2022-10-26T23:11:29.275Z,10.60
2022-10-26T23:13:58.780Z,10.58
2022-10-26T23:16:37.837Z,10.59
2022-10-26T23:19:07.133Z,10.60
2022-10-26T23:21:35.087Z,10.65
2022-10-26T23:24:03.012Z,10.58
2022-10-26T23:26:31.942Z,10.50
2022-10-26T23:29:00.025Z,10.57
2022-10-26T23:31:30.551Z,10.54
2022-10-26T23:33:58.689Z,10.49
2022-10-26T23:36:28.014Z,10.37
2022-10-26T23:38:55.955Z,10.31
2022-10-26T23:41:23.861Z,10.21
2022-10-26T23:43:51.797Z,10.20
2022-10-26T23:46:19.810Z,10.23
2022-10-26T23:48:47.796Z,10.29
2022-10-26T23:51:15.885Z,10.43
2022-10-26T23:53:45.214Z,10.52
2022-10-26T23:56:13.125Z,10.67
2022-10-26T23:58:41.115Z,10.70
